sensor_id;sensor_type;location;lat;lon;timestamp;pressure;altitude;pressure_sealevel;temperature;humidity
28312;BME280;15572;48.810;9.148;2024-02-26T00:01:39;96205.31;;;7.31;78.54
28312;BME280;15572;48.810;9.148;2024-02-26T00:06:38;96211.75;;;7.30;78.42
28312;BME280;15572;48.810;9.148;2024-02-26T00:11:36;96205.06;;;7.33;78.30
28312;BME280;15572;48.810;9.148;2024-02-26T00:16:32;96198.72;;;7.27;78.35
28312;BME280;15572;48.810;9.148;2024-02-26T00:21:29;96192.28;;;7.28;78.18
28312;BME280;15572;48.810;9.148;2024-02-26T00:26:27;96195.59;;;7.30;77.91
28312;BME280;15572;48.810;9.148;2024-02-26T00:31:23;96188.78;;;7.28;78.00
28312;BME280;15572;48.810;9.148;2024-02-26T00:36:19;96193.56;;;7.26;77.63
28312;BME280;15572;48.810;9.148;2024-02-26T00:41:16;96190.88;;;7.26;77.50
28312;BME280;15572;48.810;9.148;2024-02-26T00:46:13;96190.94;;;7.19;77.75
28312;BME280;15572;48.810;9.148;2024-02-26T00:51:10;96197.38;;;7.18;78.36
28312;BME280;15572;48.810;9.148;2024-02-26T00:56:06;96188.25;;;7.19;78.28
28312;BME280;15572;48.810;9.148;2024-02-26T01:01:03;96195.97;;;7.15;78.89
28312;BME280;15572;48.810;9.148;2024-02-26T01:06:01;96192.56;;;7.02;79.98
28312;BME280;15572;48.810;9.148;2024-02-26T01:10:57;96183.09;;;6.99;79.60
28312;BME280;15572;48.810;9.148;2024-02-26T01:15:53;96193.91;;;6.93;80.29
28312;BME280;15572;48.810;9.148;2024-02-26T01:20:50;96183.56;;;6.90;81.71
28312;BME280;15572;48.810;9.148;2024-02-26T01:25:47;96165.00;;;6.88;82.48
28312;BME280;15572;48.810;9.148;2024-02-26T01:30:44;96158.34;;;6.91;83.31
28312;BME280;15572;48.810;9.148;2024-02-26T01:35:41;96175.91;;;6.93;84.00
28312;BME280;15572;48.810;9.148;2024-02-26T01:40:37;96178.19;;;6.90;83.96
28312;BME280;15572;48.810;9.148;2024-02-26T01:45:35;96192.72;;;6.89;84.69
28312;BME280;15572;48.810;9.148;2024-02-26T01:50:31;96207.78;;;6.90;84.41
28312;BME280;15572;48.810;9.148;2024-02-26T01:55:29;96213.41;;;6.88;83.63
28312;BME280;15572;48.810;9.148;2024-02-26T02:00:26;96222.72;;;6.86;84.34
28312;BME280;15572;48.810;9.148;2024-02-26T02:05:24;96223.47;;;6.68;85.59
28312;BME280;15572;48.810;9.148;2024-02-26T02:10:22;96231.63;;;6.61;85.82
28312;BME280;15572;48.810;9.148;2024-02-26T02:15:20;96240.91;;;6.65;85.43
28312;BME280;15572;48.810;9.148;2024-02-26T02:20:17;96248.31;;;6.70;85.62
28312;BME280;15572;48.810;9.148;2024-02-26T02:25:15;96235.84;;;6.75;85.60
28312;BME280;15572;48.810;9.148;2024-02-26T02:30:12;96232.50;;;6.80;85.48
28312;BME280;15572;48.810;9.148;2024-02-26T02:35:09;96241.50;;;6.67;87.11
28312;BME280;15572;48.810;9.148;2024-02-26T02:40:06;96240.84;;;6.72;86.12
28312;BME280;15572;48.810;9.148;2024-02-26T02:45:05;96224.31;;;6.68;85.96
28312;BME280;15572;48.810;9.148;2024-02-26T02:50:01;96220.00;;;6.67;86.78
28312;BME280;15572;48.810;9.148;2024-02-26T02:54:58;96228.22;;;6.72;87.84
28312;BME280;15572;48.810;9.148;2024-02-26T02:59:54;96238.53;;;6.75;85.65
28312;BME280;15572;48.810;9.148;2024-02-26T03:04:52;96238.91;;;6.79;83.25
28312;BME280;15572;48.810;9.148;2024-02-26T03:09:48;96243.19;;;6.87;81.30
28312;BME280;15572;48.810;9.148;2024-02-26T03:14:45;96227.53;;;6.84;82.12
28312;BME280;15572;48.810;9.148;2024-02-26T03:19:41;96226.91;;;6.82;85.00
28312;BME280;15572;48.810;9.148;2024-02-26T03:24:43;96232.50;;;6.80;86.33
28312;BME280;15572;48.810;9.148;2024-02-26T03:29:39;96220.31;;;6.78;87.76
28312;BME280;15572;48.810;9.148;2024-02-26T03:34:36;96226.69;;;6.83;89.12
28312;BME280;15572;48.810;9.148;2024-02-26T03:39:34;96217.19;;;6.81;90.10
28312;BME280;15572;48.810;9.148;2024-02-26T03:44:31;96194.47;;;6.76;90.62
28312;BME280;15572;48.810;9.148;2024-02-26T03:49:28;96184.75;;;6.75;91.71
28312;BME280;15572;48.810;9.148;2024-02-26T03:54:24;96185.78;;;6.74;93.08
28312;BME280;15572;48.810;9.148;2024-02-26T03:59:21;96181.84;;;6.77;93.79
28312;BME280;15572;48.810;9.148;2024-02-26T04:04:20;96198.97;;;6.83;95.23
28312;BME280;15572;48.810;9.148;2024-02-26T04:09:17;96203.06;;;6.85;95.28
28312;BME280;15572;48.810;9.148;2024-02-26T04:14:13;96200.16;;;6.87;95.03
28312;BME280;15572;48.810;9.148;2024-02-26T04:19:09;96175.34;;;6.85;95.96
28312;BME280;15572;48.810;9.148;2024-02-26T04:24:07;96170.84;;;6.78;96.26
28312;BME280;15572;48.810;9.148;2024-02-26T04:29:03;96176.22;;;6.78;95.75
28312;BME280;15572;48.810;9.148;2024-02-26T04:34:00;96186.34;;;6.83;94.90
28312;BME280;15572;48.810;9.148;2024-02-26T04:38:56;96193.75;;;6.88;94.08
28312;BME280;15572;48.810;9.148;2024-02-26T04:43:55;96198.09;;;6.89;93.02
28312;BME280;15572;48.810;9.148;2024-02-26T04:48:51;96201.16;;;6.92;91.88
28312;BME280;15572;48.810;9.148;2024-02-26T04:53:47;96198.47;;;6.92;90.27
28312;BME280;15572;48.810;9.148;2024-02-26T04:58:44;96190.59;;;6.91;89.38
28312;BME280;15572;48.810;9.148;2024-02-26T05:03:42;96190.03;;;6.89;88.36
28312;BME280;15572;48.810;9.148;2024-02-26T05:08:38;96191.66;;;6.90;87.16
28312;BME280;15572;48.810;9.148;2024-02-26T05:13:35;96193.75;;;6.88;87.58
28312;BME280;15572;48.810;9.148;2024-02-26T05:18:31;96198.72;;;6.84;88.60
28312;BME280;15572;48.810;9.148;2024-02-26T05:23:29;96210.47;;;6.90;89.17
28312;BME280;15572;48.810;9.148;2024-02-26T05:28:25;96205.50;;;6.93;89.32
28312;BME280;15572;48.810;9.148;2024-02-26T05:33:21;96221.19;;;6.96;89.02
28312;BME280;15572;48.810;9.148;2024-02-26T05:38:18;96223.72;;;6.91;89.18
28312;BME280;15572;48.810;9.148;2024-02-26T05:43:16;96251.66;;;6.90;89.61
28312;BME280;15572;48.810;9.148;2024-02-26T05:48:12;96264.72;;;6.87;88.47
28312;BME280;15572;48.810;9.148;2024-02-26T05:53:08;96268.22;;;6.87;88.85
28312;BME280;15572;48.810;9.148;2024-02-26T05:58:05;96263.91;;;6.86;89.59
28312;BME280;15572;48.810;9.148;2024-02-26T06:03:03;96271.78;;;6.81;90.63
28312;BME280;15572;48.810;9.148;2024-02-26T06:08:00;96261.25;;;6.80;90.81
28312;BME280;15572;48.810;9.148;2024-02-26T06:12:57;96254.00;;;6.80;91.60
28312;BME280;15572;48.810;9.148;2024-02-26T06:17:53;96269.78;;;6.76;94.06
28312;BME280;15572;48.810;9.148;2024-02-26T06:22:52;96274.53;;;6.74;94.84
28312;BME280;15572;48.810;9.148;2024-02-26T06:27:48;96272.16;;;6.60;96.54
28312;BME280;15572;48.810;9.148;2024-02-26T06:32:45;96277.00;;;6.51;98.27
28312;BME280;15572;48.810;9.148;2024-02-26T06:37:41;96280.47;;;6.52;98.63
28312;BME280;15572;48.810;9.148;2024-02-26T06:42:39;96278.16;;;6.62;100.00
28312;BME280;15572;48.810;9.148;2024-02-26T06:47:35;96287.81;;;6.69;100.00
28312;BME280;15572;48.810;9.148;2024-02-26T06:52:32;96291.31;;;6.70;100.00
28312;BME280;15572;48.810;9.148;2024-02-26T06:57:28;96304.56;;;6.71;100.00
28312;BME280;15572;48.810;9.148;2024-02-26T07:02:26;96311.25;;;6.62;100.00
28312;BME280;15572;48.810;9.148;2024-02-26T07:07:22;96319.19;;;6.51;100.00
28312;BME280;15572;48.810;9.148;2024-02-26T07:12:18;96323.69;;;6.57;100.00
28312;BME280;15572;48.810;9.148;2024-02-26T07:17:16;96325.44;;;6.69;100.00
28312;BME280;15572;48.810;9.148;2024-02-26T07:22:14;96332.66;;;6.75;100.00
28312;BME280;15572;48.810;9.148;2024-02-26T07:27:10;96344.41;;;6.81;100.00
28312;BME280;15572;48.810;9.148;2024-02-26T07:32:07;96341.44;;;6.89;100.00
28312;BME280;15572;48.810;9.148;2024-02-26T07:37:03;96344.09;;;6.96;100.00
28312;BME280;15572;48.810;9.148;2024-02-26T07:42:03;96349.44;;;7.02;100.00
28312;BME280;15572;48.810;9.148;2024-02-26T07:47:00;96353.50;;;7.11;100.00
28312;BME280;15572;48.810;9.148;2024-02-26T07:51:56;96355.94;;;7.19;100.00
28312;BME280;15572;48.810;9.148;2024-02-26T07:56:53;96354.19;;;7.32;100.00
28312;BME280;15572;48.810;9.148;2024-02-26T08:01:51;96362.78;;;7.40;100.00
28312;BME280;15572;48.810;9.148;2024-02-26T08:06:47;96357.88;;;7.55;100.00
28312;BME280;15572;48.810;9.148;2024-02-26T08:11:44;96348.63;;;7.70;100.00
28312;BME280;15572;48.810;9.148;2024-02-26T08:16:40;96349.53;;;7.82;100.00
28312;BME280;15572;48.810;9.148;2024-02-26T08:21:38;96338.25;;;7.91;100.00
28312;BME280;15572;48.810;9.148;2024-02-26T08:26:34;96349.31;;;8.01;100.00
28312;BME280;15572;48.810;9.148;2024-02-26T08:31:31;96347.47;;;8.20;100.00
28312;BME280;15572;48.810;9.148;2024-02-26T08:36:27;96349.22;;;8.33;100.00
28312;BME280;15572;48.810;9.148;2024-02-26T08:41:25;96348.66;;;8.42;98.65
28312;BME280;15572;48.810;9.148;2024-02-26T08:46:21;96357.66;;;8.55;97.43
28312;BME280;15572;48.810;9.148;2024-02-26T08:51:18;96366.84;;;8.65;96.76
28312;BME280;15572;48.810;9.148;2024-02-26T08:56:14;96369.13;;;8.80;95.65
28312;BME280;15572;48.810;9.148;2024-02-26T09:01:14;96368.56;;;8.90;94.21
28312;BME280;15572;48.810;9.148;2024-02-26T09:06:10;96362.13;;;8.91;93.17
28312;BME280;15572;48.810;9.148;2024-02-26T09:11:08;96371.75;;;8.98;91.84
28312;BME280;15572;48.810;9.148;2024-02-26T09:16:05;96368.38;;;9.03;91.37
28312;BME280;15572;48.810;9.148;2024-02-26T09:21:05;96371.69;;;9.16;89.89
28312;BME280;15572;48.810;9.148;2024-02-26T09:26:02;96367.84;;;9.24;88.22
28312;BME280;15572;48.810;9.148;2024-02-26T09:30:59;96369.50;;;9.37;87.57
28312;BME280;15572;48.810;9.148;2024-02-26T09:35:55;96373.13;;;9.42;86.62
28312;BME280;15572;48.810;9.148;2024-02-26T09:40:53;96372.22;;;9.48;85.83
28312;BME280;15572;48.810;9.148;2024-02-26T09:45:50;96379.84;;;9.63;84.26
28312;BME280;15572;48.810;9.148;2024-02-26T09:50:47;96379.28;;;9.72;82.24
28312;BME280;15572;48.810;9.148;2024-02-26T09:55:43;96379.75;;;9.81;84.16
28312;BME280;15572;48.810;9.148;2024-02-26T10:00:41;96380.13;;;10.20;86.12
28312;BME280;15572;48.810;9.148;2024-02-26T10:05:38;96398.63;;;10.51;84.17
28312;BME280;15572;48.810;9.148;2024-02-26T10:10:36;96393.97;;;10.75;82.03
28312;BME280;15572;48.810;9.148;2024-02-26T10:15:33;96402.16;;;10.91;81.24
28312;BME280;15572;48.810;9.148;2024-02-26T10:20:31;96394.66;;;10.82;78.33
28312;BME280;15572;48.810;9.148;2024-02-26T10:25:27;96406.06;;;11.12;77.57
28312;BME280;15572;48.810;9.148;2024-02-26T10:30:27;96405.22;;;11.40;75.96
28312;BME280;15572;48.810;9.148;2024-02-26T10:35:23;96408.03;;;11.62;72.25
28312;BME280;15572;48.810;9.148;2024-02-26T10:40:22;96402.31;;;11.75;71.83
28312;BME280;15572;48.810;9.148;2024-02-26T10:45:19;96402.72;;;11.84;70.51
28312;BME280;15572;48.810;9.148;2024-02-26T10:50:15;96404.00;;;11.98;70.14
28312;BME280;15572;48.810;9.148;2024-02-26T10:55:17;96421.19;;;12.03;68.54
28312;BME280;15572;48.810;9.148;2024-02-26T11:00:16;96408.75;;;12.07;66.85
28312;BME280;15572;48.810;9.148;2024-02-26T11:05:13;96411.97;;;12.21;67.07
28312;BME280;15572;48.810;9.148;2024-02-26T11:10:11;96413.84;;;12.20;66.63
28312;BME280;15572;48.810;9.148;2024-02-26T11:15:08;96425.25;;;12.39;65.33
28312;BME280;15572;48.810;9.148;2024-02-26T11:20:09;96417.88;;;12.56;61.87
28312;BME280;15572;48.810;9.148;2024-02-26T11:25:07;96413.34;;;12.84;62.09
28312;BME280;15572;48.810;9.148;2024-02-26T11:30:09;96414.75;;;12.86;61.31
28312;BME280;15572;48.810;9.148;2024-02-26T11:35:08;96418.59;;;12.90;60.23
28312;BME280;15572;48.810;9.148;2024-02-26T11:40:10;96422.44;;;12.94;60.39
28312;BME280;15572;48.810;9.148;2024-02-26T11:45:38;96416.28;;;13.04;59.70
28312;BME280;15572;48.810;9.148;2024-02-26T11:50:50;96419.94;;;13.36;59.51
28312;BME280;15572;48.810;9.148;2024-02-26T11:55:48;96418.75;;;13.54;58.19
28312;BME280;15572;48.810;9.148;2024-02-26T12:00:44;96421.94;;;13.46;58.30
28312;BME280;15572;48.810;9.148;2024-02-26T12:05:42;96420.09;;;13.25;58.09
28312;BME280;15572;48.810;9.148;2024-02-26T12:10:40;96426.13;;;13.10;59.00
28312;BME280;15572;48.810;9.148;2024-02-26T12:15:39;96429.31;;;13.02;59.40
28312;BME280;15572;48.810;9.148;2024-02-26T12:20:36;96424.19;;;13.05;58.93
28312;BME280;15572;48.810;9.148;2024-02-26T12:25:33;96436.53;;;13.13;58.65
28312;BME280;15572;48.810;9.148;2024-02-26T12:30:30;96440.63;;;13.16;58.04
28312;BME280;15572;48.810;9.148;2024-02-26T12:35:28;96439.56;;;13.17;58.26
28312;BME280;15572;48.810;9.148;2024-02-26T12:40:26;96436.84;;;13.17;58.02
28312;BME280;15572;48.810;9.148;2024-02-26T12:45:25;96435.59;;;13.24;58.27
28312;BME280;15572;48.810;9.148;2024-02-26T12:50:24;96439.81;;;13.42;57.79
28312;BME280;15572;48.810;9.148;2024-02-26T12:55:21;96441.94;;;13.62;57.27
28312;BME280;15572;48.810;9.148;2024-02-26T13:00:21;96441.06;;;13.56;56.60
28312;BME280;15572;48.810;9.148;2024-02-26T13:05:18;96447.16;;;13.68;56.75
28312;BME280;15572;48.810;9.148;2024-02-26T13:10:17;96451.47;;;13.96;56.44
28312;BME280;15572;48.810;9.148;2024-02-26T13:15:18;96448.97;;;14.26;55.53
28312;BME280;15572;48.810;9.148;2024-02-26T13:20:25;96452.19;;;14.50;54.70
28312;BME280;15572;48.810;9.148;2024-02-26T13:25:23;96445.91;;;14.50;52.73
28312;BME280;15572;48.810;9.148;2024-02-26T13:30:20;96452.50;;;14.59;52.80
28312;BME280;15572;48.810;9.148;2024-02-26T13:35:16;96453.72;;;14.83;52.82
28312;BME280;15572;48.810;9.148;2024-02-26T13:40:13;96456.56;;;15.08;52.60
28312;BME280;15572;48.810;9.148;2024-02-26T13:45:11;96455.66;;;14.88;51.51
28312;BME280;15572;48.810;9.148;2024-02-26T13:50:08;96461.75;;;15.10;52.07
28312;BME280;15572;48.810;9.148;2024-02-26T13:55:06;96466.16;;;15.16;52.03
28312;BME280;15572;48.810;9.148;2024-02-26T14:00:03;96465.84;;;15.12;52.72
28312;BME280;15572;48.810;9.148;2024-02-26T14:05:01;96459.28;;;15.08;52.79
28312;BME280;15572;48.810;9.148;2024-02-26T14:09:59;96455.66;;;15.60;52.10
28312;BME280;15572;48.810;9.148;2024-02-26T14:14:55;96462.25;;;15.89;50.81
28312;BME280;15572;48.810;9.148;2024-02-26T14:19:54;96462.53;;;15.88;50.56
28312;BME280;15572;48.810;9.148;2024-02-26T14:24:51;96468.78;;;15.73;50.49
28312;BME280;15572;48.810;9.148;2024-02-26T14:29:48;96467.38;;;15.55;50.20
28312;BME280;15572;48.810;9.148;2024-02-26T14:34:44;96463.31;;;15.58;49.71
28312;BME280;15572;48.810;9.148;2024-02-26T14:39:41;96466.06;;;15.93;49.37
28312;BME280;15572;48.810;9.148;2024-02-26T14:44:39;96463.91;;;16.06;48.06
28312;BME280;15572;48.810;9.148;2024-02-26T14:49:35;96464.94;;;15.64;48.77
28312;BME280;15572;48.810;9.148;2024-02-26T14:54:33;96453.78;;;14.93;49.98
28312;BME280;15572;48.810;9.148;2024-02-26T14:59:32;96470.59;;;14.80;51.37
28312;BME280;15572;48.810;9.148;2024-02-26T15:04:30;96466.59;;;14.46;51.97
28312;BME280;15572;48.810;9.148;2024-02-26T15:09:26;96471.81;;;14.20;53.31
28312;BME280;15572;48.810;9.148;2024-02-26T15:14:23;96480.31;;;13.97;53.66
28312;BME280;15572;48.810;9.148;2024-02-26T15:19:20;96482.81;;;13.72;54.47
28312;BME280;15572;48.810;9.148;2024-02-26T15:24:18;96485.50;;;13.67;55.20
28312;BME280;15572;48.810;9.148;2024-02-26T15:29:14;96490.56;;;13.58;56.47
28312;BME280;15572;48.810;9.148;2024-02-26T15:34:11;96488.56;;;13.48;57.02
28312;BME280;15572;48.810;9.148;2024-02-26T15:39:08;96491.88;;;13.29;57.77
28312;BME280;15572;48.810;9.148;2024-02-26T15:44:06;96490.09;;;13.18;58.80
28312;BME280;15572;48.810;9.148;2024-02-26T15:49:02;96488.25;;;13.01;59.65
28312;BME280;15572;48.810;9.148;2024-02-26T15:53:59;96490.00;;;12.91;60.52
28312;BME280;15572;48.810;9.148;2024-02-26T15:58:55;96495.56;;;12.79;60.64
28312;BME280;15572;48.810;9.148;2024-02-26T16:03:53;96500.59;;;12.71;61.39
28312;BME280;15572;48.810;9.148;2024-02-26T16:08:51;96515.09;;;12.59;62.64
28312;BME280;15572;48.810;9.148;2024-02-26T16:13:50;96511.97;;;12.51;63.53
28312;BME280;15572;48.810;9.148;2024-02-26T16:18:50;96525.16;;;12.42;63.94
28312;BME280;15572;48.810;9.148;2024-02-26T16:23:48;96529.91;;;12.35;64.42
28312;BME280;15572;48.810;9.148;2024-02-26T16:28:45;96544.13;;;12.26;64.75
28312;BME280;15572;48.810;9.148;2024-02-26T16:33:41;96548.56;;;12.15;65.27
28312;BME280;15572;48.810;9.148;2024-02-26T16:38:37;96559.25;;;12.05;65.49
28312;BME280;15572;48.810;9.148;2024-02-26T16:43:36;96567.00;;;12.30;74.64
28312;BME280;15572;48.810;9.148;2024-02-26T16:48:34;96580.91;;;13.05;66.73
28312;BME280;15572;48.810;9.148;2024-02-26T16:53:30;96576.28;;;13.22;63.03
28312;BME280;15572;48.810;9.148;2024-02-26T16:58:27;96588.75;;;13.18;58.32
28312;BME280;15572;48.810;9.148;2024-02-26T17:03:25;96586.50;;;12.60;59.36
28312;BME280;15572;48.810;9.148;2024-02-26T17:08:21;96600.78;;;12.22;60.81
28312;BME280;15572;48.810;9.148;2024-02-26T17:13:17;96614.22;;;12.00;61.71
28312;BME280;15572;48.810;9.148;2024-02-26T17:18:14;96623.38;;;11.82;62.16
28312;BME280;15572;48.810;9.148;2024-02-26T17:23:13;96626.00;;;11.66;62.16
28312;BME280;15572;48.810;9.148;2024-02-26T17:28:10;96638.41;;;11.50;62.42
28312;BME280;15572;48.810;9.148;2024-02-26T17:33:07;96648.69;;;11.36;62.73
28312;BME280;15572;48.810;9.148;2024-02-26T17:38:03;96657.44;;;11.27;62.84
28312;BME280;15572;48.810;9.148;2024-02-26T17:43:01;96662.38;;;11.18;62.55
28312;BME280;15572;48.810;9.148;2024-02-26T17:47:58;96665.19;;;11.12;62.45
28312;BME280;15572;48.810;9.148;2024-02-26T17:52:55;96673.91;;;11.02;62.65
28312;BME280;15572;48.810;9.148;2024-02-26T17:57:52;96683.81;;;10.96;62.67
28312;BME280;15572;48.810;9.148;2024-02-26T18:02:50;96688.53;;;10.89;62.81
28312;BME280;15572;48.810;9.148;2024-02-26T18:07:46;96687.81;;;10.82;62.59
28312;BME280;15572;48.810;9.148;2024-02-26T18:12:43;96702.88;;;10.78;63.00
28312;BME280;15572;48.810;9.148;2024-02-26T18:17:39;96713.09;;;10.76;63.11
28312;BME280;15572;48.810;9.148;2024-02-26T18:22:38;96719.78;;;10.74;63.00
28312;BME280;15572;48.810;9.148;2024-02-26T18:27:35;96743.34;;;10.73;63.18
28312;BME280;15572;48.810;9.148;2024-02-26T18:32:33;96750.38;;;10.74;62.98
28312;BME280;15572;48.810;9.148;2024-02-26T18:37:29;96763.78;;;10.69;63.69
28312;BME280;15572;48.810;9.148;2024-02-26T18:42:27;96765.09;;;10.67;63.62
28312;BME280;15572;48.810;9.148;2024-02-26T18:47:24;96773.09;;;10.62;65.26
28312;BME280;15572;48.810;9.148;2024-02-26T18:52:21;96772.25;;;10.61;65.35
28312;BME280;15572;48.810;9.148;2024-02-26T18:57:17;96772.47;;;10.60;65.95
28312;BME280;15572;48.810;9.148;2024-02-26T19:02:15;96774.22;;;10.54;66.91
28312;BME280;15572;48.810;9.148;2024-02-26T19:07:12;96777.63;;;10.49;67.71
28312;BME280;15572;48.810;9.148;2024-02-26T19:12:08;96770.41;;;10.43;68.68
28312;BME280;15572;48.810;9.148;2024-02-26T19:17:05;96784.03;;;10.37;69.47
28312;BME280;15572;48.810;9.148;2024-02-26T19:22:04;96794.72;;;10.32;69.95
28312;BME280;15572;48.810;9.148;2024-02-26T19:27:01;96803.50;;;10.27;70.54
28312;BME280;15572;48.810;9.148;2024-02-26T19:31:59;96803.97;;;10.24;70.76
28312;BME280;15572;48.810;9.148;2024-02-26T19:36:55;96811.94;;;10.19;71.59
28312;BME280;15572;48.810;9.148;2024-02-26T19:41:53;96819.44;;;10.17;72.39
28312;BME280;15572;48.810;9.148;2024-02-26T19:46:50;96818.63;;;10.17;72.69
28312;BME280;15572;48.810;9.148;2024-02-26T19:51:46;96828.00;;;10.14;72.82
28312;BME280;15572;48.810;9.148;2024-02-26T19:56:42;96844.66;;;10.11;73.45
28312;BME280;15572;48.810;9.148;2024-02-26T20:01:41;96856.53;;;10.10;74.04
28312;BME280;15572;48.810;9.148;2024-02-26T20:06:38;96863.00;;;10.09;74.10
28312;BME280;15572;48.810;9.148;2024-02-26T20:11:35;96865.94;;;10.07;74.35
28312;BME280;15572;48.810;9.148;2024-02-26T20:16:31;96872.38;;;10.06;74.87
28312;BME280;15572;48.810;9.148;2024-02-26T20:21:30;96876.13;;;10.05;74.71
28312;BME280;15572;48.810;9.148;2024-02-26T20:26:27;96882.56;;;10.04;74.93
28312;BME280;15572;48.810;9.148;2024-02-26T20:31:23;96893.41;;;10.04;74.94
28312;BME280;15572;48.810;9.148;2024-02-26T20:36:21;96895.88;;;10.06;75.10
28312;BME280;15572;48.810;9.148;2024-02-26T20:41:19;96900.47;;;10.05;74.65
28312;BME280;15572;48.810;9.148;2024-02-26T20:46:17;96912.31;;;10.04;74.64
28312;BME280;15572;48.810;9.148;2024-02-26T20:51:14;96913.41;;;10.03;75.02
28312;BME280;15572;48.810;9.148;2024-02-26T20:56:10;96919.84;;;10.02;75.20
28312;BME280;15572;48.810;9.148;2024-02-26T21:01:09;96937.31;;;10.00;75.29
28312;BME280;15572;48.810;9.148;2024-02-26T21:06:06;96933.22;;;9.97;75.88
28312;BME280;15572;48.810;9.148;2024-02-26T21:11:03;96929.31;;;9.93;76.10
28312;BME280;15572;48.810;9.148;2024-02-26T21:16:00;96936.19;;;9.89;76.95
28312;BME280;15572;48.810;9.148;2024-02-26T21:20:57;96958.25;;;9.86;77.30
28312;BME280;15572;48.810;9.148;2024-02-26T21:25:54;96959.75;;;9.82;78.18
28312;BME280;15572;48.810;9.148;2024-02-26T21:30:50;96967.47;;;9.79;79.11
28312;BME280;15572;48.810;9.148;2024-02-26T21:35:49;96989.31;;;9.77;79.83
28312;BME280;15572;48.810;9.148;2024-02-26T21:40:47;97009.50;;;9.75;79.84
28312;BME280;15572;48.810;9.148;2024-02-26T21:45:44;97023.00;;;9.75;80.13
28312;BME280;15572;48.810;9.148;2024-02-26T21:50:40;97029.91;;;9.70;80.74
28312;BME280;15572;48.810;9.148;2024-02-26T21:55:37;97027.41;;;9.69;80.59
28312;BME280;15572;48.810;9.148;2024-02-26T22:00:34;97037.84;;;9.65;80.76
28312;BME280;15572;48.810;9.148;2024-02-26T22:05:31;97035.13;;;9.65;80.65
28312;BME280;15572;48.810;9.148;2024-02-26T22:10:27;97026.19;;;9.65;80.96
28312;BME280;15572;48.810;9.148;2024-02-26T22:15:24;97027.88;;;9.66;80.82
28312;BME280;15572;48.810;9.148;2024-02-26T22:20:22;97038.66;;;9.66;80.58
28312;BME280;15572;48.810;9.148;2024-02-26T22:25:18;97029.13;;;9.63;80.69
28312;BME280;15572;48.810;9.148;2024-02-26T22:30:15;97027.69;;;9.61;80.55
28312;BME280;15572;48.810;9.148;2024-02-26T22:35:12;97032.47;;;9.59;81.45
28312;BME280;15572;48.810;9.148;2024-02-26T22:40:10;97045.44;;;9.50;81.92
28312;BME280;15572;48.810;9.148;2024-02-26T22:45:07;97052.53;;;9.45;82.46
28312;BME280;15572;48.810;9.148;2024-02-26T22:50:05;97066.25;;;9.37;82.57
28312;BME280;15572;48.810;9.148;2024-02-26T22:55:01;97066.09;;;9.32;82.61
28312;BME280;15572;48.810;9.148;2024-02-26T22:59:59;97067.56;;;9.27;83.15
28312;BME280;15572;48.810;9.148;2024-02-26T23:05:06;97081.06;;;9.27;83.42
28312;BME280;15572;48.810;9.148;2024-02-26T23:10:02;97081.47;;;9.24;83.92
28312;BME280;15572;48.810;9.148;2024-02-26T23:15:00;97085.25;;;9.23;85.13
28312;BME280;15572;48.810;9.148;2024-02-26T23:19:57;97092.34;;;9.18;85.20
28312;BME280;15572;48.810;9.148;2024-02-26T23:24:53;97086.31;;;9.16;86.27
28312;BME280;15572;48.810;9.148;2024-02-26T23:29:49;97078.84;;;9.11;87.33
28312;BME280;15572;48.810;9.148;2024-02-26T23:34:47;97088.00;;;9.10;87.26
28312;BME280;15572;48.810;9.148;2024-02-26T23:39:45;97079.06;;;9.10;87.87
28312;BME280;15572;48.810;9.148;2024-02-26T23:44:42;97093.59;;;9.09;88.38
28312;BME280;15572;48.810;9.148;2024-02-26T23:49:39;97096.72;;;9.12;88.71
28312;BME280;15572;48.810;9.148;2024-02-26T23:54:36;97101.50;;;9.10;89.09
28312;BME280;15572;48.810;9.148;2024-02-26T23:59:34;97092.56;;;9.10;89.29
